Flight Track Log - Related Links

Times and Time Zones

All times are in EDT time to prevent confusion due to time zone crossing. See the KAP29 flight status page for this flight to view local times or setup timezone preferences in your user account.

Time Position Orientation Groundspeed Altitude Reporting Facility
EDT Latitude Longitude Course Direction KTS MPH feet Rate Location/Type
Thu 06:23:03 PM 42.3667 -71.0167 270° West 104 120 400  Level KA90
Thu 06:24:32 PM 42.3667 -71.0833 270° West 135 155 1,700 914 Climbing KA90
Thu 06:25:34 PM 42.3667 -71.1333 270° West 140 161 2,700 1,041 Climbing KA90
Thu 06:26:33 PM 42.3667 -71.1833 270° West 130 150 3,800 1,026 Climbing KA90
Thu 06:27:31 PM 42.4000 -71.2167 324° Northwest 142 163 4,700 605 Climbing KA90
Thu 06:28:32 PM 42.4333 -71.2333 340° North 166 191 5,000 146 Climbing KA90
Thu 06:29:34 PM 42.4833 -71.2500 346° North 185 213 5,000  Level KA90
Thu 06:30:39 PM 42.5500 -71.2667 350° North 179 206 5,000 143 Level KA90
Thu 06:31:40 PM 42.5833 -71.2833 340° North 170 196 5,300 298 Climbing KA90
Thu 06:32:40 PM 42.6333 -71.3000 346° North 166 191 5,600 321 Climbing KA90
Thu 06:33:32 PM 42.6667 -71.3000 360° North 159 183 5,900 368 Climbing KA90
Thu 06:34:34 PM 42.7167 -71.3167 346° North 159 183 6,300 372 Climbing KA90
Thu 06:35:41 PM 42.7667 -71.3333 346° North 157 181 6,700 384 Climbing KA90
Thu 06:36:39 PM 42.8000 -71.3500 340° North 147 169 7,100 407 Climbing KA90
Thu 06:37:39 PM 42.8333 -71.4000 312° West 147 169 7,500 450 Climbing KA90
Thu 06:38:39 PM 42.8500 -71.4333 304° West 142 163 8,000 246 Climbing KA90
Thu 06:39:41 PM 42.8833 -71.4833 312° West 161 185 8,000 56 Level KA90
Thu 06:40:26 PM 42.9167 -71.5167 324° Northwest 171 197 8,100  Climbing KA90
Thu 06:41:39 PM 42.9500 -71.5667 312° West 176 203 8,000 -51 Descending KA90
Thu 06:42:23 PM 42.9789 -71.6200 307° West 181 208 8,000  Level Boston Center
Thu 06:43:23 PM 43.0106 -71.6622 316° Northwest 191 220 8,000  Level Boston Center
Thu 06:44:23 PM 43.0461 -71.7100 316° Northwest 185 213 8,000  Level Boston Center
Thu 06:45:23 PM 43.0797 -71.7578 314° West 177 204 8,000  Level Boston Center
Thu 06:46:23 PM 43.1175 -71.8058 317° Northwest 177 204 8,000  Level Boston Center
Thu 06:47:23 PM 43.1553 -71.8508 319° Northwest 182 209 8,000  Level Boston Center
Thu 06:48:23 PM 43.1869 -71.8992 312° West 177 204 8,000  Level Boston Center
Thu 06:49:23 PM 43.2225 -71.9500 314° West 177 204 8,000  Level Boston Center
Thu 06:50:23 PM 43.2539 -71.9983 312° West 177 204 8,000  Level Boston Center
Thu 06:51:23 PM 43.2875 -72.0494 312° West 182 209 8,000  Level Boston Center
Thu 06:52:23 PM 43.3231 -72.1006 314° West 182 209 8,000  Level Boston Center
Thu 06:53:23 PM 43.3567 -72.1489 314° West 182 209 8,000  Level Boston Center
Thu 06:54:23 PM 43.3922 -72.1972 315° West 187 215 8,000  Level Boston Center
Thu 06:55:23 PM 43.4256 -72.2486 312° West 187 215 8,000  Level Boston Center
Thu 06:56:23 PM 43.4611 -72.2969 315° West 187 215 8,000  Level Boston Center
Thu 06:57:23 PM 43.4986 -72.3486 315° West 187 215 8,000  Level Boston Center
Thu 06:58:23 PM 43.5319 -72.4000 312° West 187 215 8,000  Level Boston Center
Thu 06:59:23 PM 43.5675 -72.4486 315° West 187 215 8,000  Level Boston Center
Thu 07:00:23 PM 43.6008 -72.5003 312° West 187 215 8,000  Level Boston Center
Thu 07:01:23 PM 43.6361 -72.5519 313° West 187 215 8,000  Level Boston Center
Thu 07:02:23 PM 43.6736 -72.6036 315° West 187 215 8,000 -50 Level Boston Center
Thu 07:03:23 PM 43.7047 -72.6411 319° Northwest 187 215 7,900 -50 Descending Boston Center
Thu 07:04:23 PM 43.7381 -72.6986 309° West 181 208 7,900  Level Boston Center
Thu 07:05:23 PM 43.7753 -72.7536 313° West 188 216 7,900  Level Boston Center
Thu 07:06:23 PM 43.8106 -72.8056 313° West 188 216 7,900  Level Boston Center
Thu 07:07:23 PM 43.8481 -72.8547 317° Northwest 188 216 7,900  Level Boston Center
Thu 07:08:23 PM 43.8833 -72.9097 312° West 188 216 7,900  Level Boston Center
Thu 07:09:23 PM 43.9164 -72.9617 311° West 188 216 7,900  Level Boston Center
Thu 07:10:23 PM 43.9578 -73.0197 315° West 188 216 7,900  Level Boston Center
Thu 07:11:23 PM 43.9908 -73.0719 311° West 188 216 7,900  Level Boston Center
Thu 07:12:23 PM 44.0258 -73.1244 313° West 188 216 7,900  Level Boston Center
Thu 07:13:23 PM 44.0631 -73.1739 316° Northwest 188 216 7,900  Level Boston Center
Thu 07:14:23 PM 44.0983 -73.2264 313° West 188 216 7,900  Level Boston Center
Thu 07:15:23 PM 44.1333 -73.2789 313° West 188 216 7,900  Level Boston Center
Thu 07:16:23 PM 44.1683 -73.3314 313° West 188 216 7,900  Level Boston Center
Thu 07:17:23 PM 44.2033 -73.3814 314° West 188 216 7,900 -200 Level Boston Center
Thu 07:18:23 PM 44.2403 -73.4397 311° West 188 216 7,500 -400 Descending Boston Center
Thu 07:19:23 PM 44.2794 -73.4928 316° Northwest 188 216 7,100 -250 Descending Boston Center
Thu 07:20:23 PM 44.3164 -73.5514 311° West 194 223 7,000 -50 Descending Boston Center
Thu 07:21:23 PM 44.3514 -73.6042 313° West 194 223 7,000  Level Boston Center
Thu 07:22:23 PM 44.3842 -73.6542 313° West 195 224 7,000  Level Boston Center
Thu 07:23:23 PM 44.4189 -73.7072 313° West 195 224 7,000  Level Boston Center
Thu 07:24:23 PM 44.4578 -73.7692 311° West 195 224 7,000  Level Boston Center
Thu 07:25:23 PM 44.4928 -73.8167 316° Northwest 195 224 7,000 -200 Level Boston Center
Thu 07:26:23 PM 44.5294 -73.8728 313° West 195 224 6,600 -450 Descending Boston Center
Thu 07:27:23 PM 44.5536 -73.9433 296° West 202 232 6,100 -600 Descending Boston Center
Thu 07:28:23 PM 44.5694 -74.0136 288° West 196 226 5,400 -750 Descending Boston Center
Thu 07:29:23 PM 44.5394 -74.0594 227° Southwest 159 183 4,600 -800 Descending Boston Center
Thu 07:30:23 PM 44.4975 -74.0961 212° Southwest 159 183 3,800 -500 Descending Boston Center
Thu 07:31:23 PM 44.4636 -74.1300 216° Southwest 159 183 3,600 -500 Descending Boston Center
Thu 07:32:23 PM 44.4297 -74.1611 213° Southwest 159 183 2,800 -550 Descending Boston Center
Thu 07:33:23 PM 44.4000 -74.1950 219° Southwest 154 177 2,500 2,100 Descending Boston Center
Thu 07:34:23 PM 44.3683 -74.2289 217° Southwest 154 177 7,000 2,250 Climbing Boston Center
Thu 07:35:23 PM 44.3364 -74.2658 220° Southwest 154 177 7,000  Level Boston Center

Login

Don't have an account? Register now (free) for customized features, flight alerts, and more!